sensor_id;sensor_type;location;lat;lon;timestamp;P1;durP1;ratioP1;P2;durP2;ratioP2
60494;SDS011;46342;49.046;11.920;2023-03-01T00:00:37;8.93;;;5.95;;
60494;SDS011;46342;49.046;11.920;2023-03-01T00:03:03;9.25;;;5.82;;
60494;SDS011;46342;49.046;11.920;2023-03-01T00:05:29;10.32;;;7.05;;
60494;SDS011;46342;49.046;11.920;2023-03-01T00:07:54;10.50;;;6.15;;
60494;SDS011;46342;49.046;11.920;2023-03-01T00:10:20;12.05;;;6.07;;
60494;SDS011;46342;49.046;11.920;2023-03-01T00:12:45;10.73;;;6.30;;
60494;SDS011;46342;49.046;11.920;2023-03-01T00:15:11;10.93;;;6.80;;
60494;SDS011;46342;49.046;11.920;2023-03-01T00:17:37;10.70;;;7.13;;
60494;SDS011;46342;49.046;11.920;2023-03-01T00:20:03;9.32;;;6.40;;
60494;SDS011;46342;49.046;11.920;2023-03-01T00:22:32;9.13;;;5.55;;
60494;SDS011;46342;49.046;11.920;2023-03-01T00:24:58;9.90;;;7.15;;
60494;SDS011;46342;49.046;11.920;2023-03-01T00:27:23;9.90;;;6.43;;
60494;SDS011;46342;49.046;11.920;2023-03-01T00:29:49;9.50;;;6.05;;
60494;SDS011;46342;49.046;11.920;2023-03-01T00:32:14;13.05;;;6.20;;
60494;SDS011;46342;49.046;11.920;2023-03-01T00:34:40;9.70;;;6.53;;
60494;SDS011;46342;49.046;11.920;2023-03-01T00:37:06;10.32;;;6.75;;
60494;SDS011;46342;49.046;11.920;2023-03-01T00:39:31;11.18;;;6.07;;
60494;SDS011;46342;49.046;11.920;2023-03-01T00:41:58;12.35;;;7.60;;
60494;SDS011;46342;49.046;11.920;2023-03-01T00:44:23;10.65;;;6.10;;
60494;SDS011;46342;49.046;11.920;2023-03-01T00:46:49;15.18;;;7.45;;
60494;SDS011;46342;49.046;11.920;2023-03-01T00:49:14;11.07;;;6.68;;
60494;SDS011;46342;49.046;11.920;2023-03-01T00:51:40;12.27;;;6.78;;
60494;SDS011;46342;49.046;11.920;2023-03-01T00:54:09;9.50;;;6.18;;
60494;SDS011;46342;49.046;11.920;2023-03-01T00:56:35;10.13;;;6.05;;
60494;SDS011;46342;49.046;11.920;2023-03-01T00:59:00;9.38;;;6.30;;
60494;SDS011;46342;49.046;11.920;2023-03-01T01:01:27;11.63;;;6.85;;
60494;SDS011;46342;49.046;11.920;2023-03-01T01:03:58;9.88;;;6.57;;
60494;SDS011;46342;49.046;11.920;2023-03-01T01:06:30;11.77;;;6.35;;
60494;SDS011;46342;49.046;11.920;2023-03-01T01:09:00;8.48;;;5.82;;
60494;SDS011;46342;49.046;11.920;2023-03-01T01:11:27;9.35;;;5.78;;
60494;SDS011;46342;49.046;11.920;2023-03-01T01:13:54;11.32;;;6.53;;
60494;SDS011;46342;49.046;11.920;2023-03-01T01:16:21;10.27;;;6.00;;
60494;SDS011;46342;49.046;11.920;2023-03-01T01:18:47;8.15;;;5.65;;
60494;SDS011;46342;49.046;11.920;2023-03-01T01:21:14;9.73;;;5.45;;
60494;SDS011;46342;49.046;11.920;2023-03-01T01:23:42;11.10;;;6.65;;
60494;SDS011;46342;49.046;11.920;2023-03-01T01:26:18;9.77;;;5.90;;
60494;SDS011;46342;49.046;11.920;2023-03-01T01:28:46;8.77;;;6.03;;
60494;SDS011;46342;49.046;11.920;2023-03-01T01:31:11;8.52;;;5.25;;
60494;SDS011;46342;49.046;11.920;2023-03-01T01:33:37;10.07;;;6.50;;
60494;SDS011;46342;49.046;11.920;2023-03-01T01:36:03;9.45;;;6.53;;
60494;SDS011;46342;49.046;11.920;2023-03-01T01:38:29;9.82;;;6.20;;
60494;SDS011;46342;49.046;11.920;2023-03-01T01:40:55;9.25;;;5.80;;
60494;SDS011;46342;49.046;11.920;2023-03-01T01:43:31;9.55;;;6.70;;
60494;SDS011;46342;49.046;11.920;2023-03-01T01:46:06;9.40;;;5.82;;
60494;SDS011;46342;49.046;11.920;2023-03-01T01:48:55;11.43;;;6.40;;
60494;SDS011;46342;49.046;11.920;2023-03-01T01:51:27;11.38;;;6.03;;
60494;SDS011;46342;49.046;11.920;2023-03-01T01:54:03;9.75;;;5.68;;
60494;SDS011;46342;49.046;11.920;2023-03-01T01:56:36;9.25;;;5.88;;
60494;SDS011;46342;49.046;11.920;2023-03-01T01:59:05;8.77;;;5.32;;
60494;SDS011;46342;49.046;11.920;2023-03-01T02:01:31;10.82;;;6.70;;
60494;SDS011;46342;49.046;11.920;2023-03-01T02:03:56;11.30;;;5.95;;
60494;SDS011;46342;49.046;11.920;2023-03-01T02:06:33;9.60;;;5.82;;
60494;SDS011;46342;49.046;11.920;2023-03-01T02:09:11;9.85;;;5.20;;
60494;SDS011;46342;49.046;11.920;2023-03-01T02:11:39;10.93;;;6.57;;
60494;SDS011;46342;49.046;11.920;2023-03-01T02:14:05;12.50;;;6.20;;
60494;SDS011;46342;49.046;11.920;2023-03-01T02:16:31;10.07;;;6.68;;
60494;SDS011;46342;49.046;11.920;2023-03-01T02:18:57;9.00;;;5.55;;
60494;SDS011;46342;49.046;11.920;2023-03-01T02:21:28;10.68;;;6.70;;
60494;SDS011;46342;49.046;11.920;2023-03-01T02:24:06;10.15;;;6.00;;
60494;SDS011;46342;49.046;11.920;2023-03-01T02:26:45;8.32;;;5.45;;
60494;SDS011;46342;49.046;11.920;2023-03-01T02:29:15;9.55;;;5.70;;
60494;SDS011;46342;49.046;11.920;2023-03-01T02:31:40;9.23;;;5.65;;
60494;SDS011;46342;49.046;11.920;2023-03-01T02:34:06;10.85;;;5.85;;
60494;SDS011;46342;49.046;11.920;2023-03-01T02:36:38;10.65;;;5.90;;
60494;SDS011;46342;49.046;11.920;2023-03-01T02:39:12;11.32;;;6.25;;
60494;SDS011;46342;49.046;11.920;2023-03-01T02:41:48;8.38;;;5.57;;
60494;SDS011;46342;49.046;11.920;2023-03-01T02:44:16;9.65;;;5.93;;
60494;SDS011;46342;49.046;11.920;2023-03-01T02:46:43;11.15;;;6.15;;
60494;SDS011;46342;49.046;11.920;2023-03-01T02:49:18;13.02;;;6.38;;
60494;SDS011;46342;49.046;11.920;2023-03-01T02:52:06;10.45;;;5.90;;
60494;SDS011;46342;49.046;11.920;2023-03-01T02:54:34;9.60;;;5.67;;
60494;SDS011;46342;49.046;11.920;2023-03-01T02:57:22;12.05;;;6.82;;
60494;SDS011;46342;49.046;11.920;2023-03-01T02:59:49;10.98;;;5.97;;
60494;SDS011;46342;49.046;11.920;2023-03-01T03:02:27;9.43;;;6.47;;
60494;SDS011;46342;49.046;11.920;2023-03-01T03:05:05;10.25;;;6.00;;
60494;SDS011;46342;49.046;11.920;2023-03-01T03:07:36;9.25;;;5.75;;
60494;SDS011;46342;49.046;11.920;2023-03-01T03:10:05;10.05;;;5.95;;
60494;SDS011;46342;49.046;11.920;2023-03-01T03:12:33;9.98;;;5.75;;
60494;SDS011;46342;49.046;11.920;2023-03-01T03:14:58;10.10;;;5.93;;
60494;SDS011;46342;49.046;11.920;2023-03-01T03:17:24;9.60;;;6.45;;
60494;SDS011;46342;49.046;11.920;2023-03-01T03:19:50;11.65;;;6.03;;
60494;SDS011;46342;49.046;11.920;2023-03-01T03:22:15;10.65;;;6.40;;
60494;SDS011;46342;49.046;11.920;2023-03-01T03:24:41;9.70;;;5.97;;
60494;SDS011;46342;49.046;11.920;2023-03-01T03:27:06;8.57;;;5.40;;
60494;SDS011;46342;49.046;11.920;2023-03-01T03:29:32;9.25;;;5.97;;
60494;SDS011;46342;49.046;11.920;2023-03-01T03:31:58;11.15;;;6.53;;
60494;SDS011;46342;49.046;11.920;2023-03-01T03:34:24;10.23;;;5.45;;
60494;SDS011;46342;49.046;11.920;2023-03-01T03:36:53;8.90;;;5.25;;
60494;SDS011;46342;49.046;11.920;2023-03-01T03:39:21;9.70;;;5.35;;
60494;SDS011;46342;49.046;11.920;2023-03-01T03:41:48;8.52;;;5.53;;
60494;SDS011;46342;49.046;11.920;2023-03-01T03:44:13;10.50;;;6.15;;
60494;SDS011;46342;49.046;11.920;2023-03-01T03:46:39;10.32;;;5.72;;
60494;SDS011;46342;49.046;11.920;2023-03-01T03:49:05;8.00;;;6.10;;
60494;SDS011;46342;49.046;11.920;2023-03-01T03:51:30;9.07;;;5.65;;
60494;SDS011;46342;49.046;11.920;2023-03-01T03:53:56;9.75;;;5.43;;
60494;SDS011;46342;49.046;11.920;2023-03-01T03:56:21;10.30;;;6.95;;
60494;SDS011;46342;49.046;11.920;2023-03-01T03:58:50;10.95;;;5.65;;
60494;SDS011;46342;49.046;11.920;2023-03-01T04:01:16;8.93;;;5.93;;
60494;SDS011;46342;49.046;11.920;2023-03-01T04:03:42;15.02;;;10.90;;
60494;SDS011;46342;49.046;11.920;2023-03-01T04:06:11;12.93;;;7.28;;
60494;SDS011;46342;49.046;11.920;2023-03-01T04:08:38;11.98;;;6.20;;
60494;SDS011;46342;49.046;11.920;2023-03-01T04:11:04;11.05;;;6.93;;
60494;SDS011;46342;49.046;11.920;2023-03-01T04:13:49;12.60;;;7.03;;
60494;SDS011;46342;49.046;11.920;2023-03-01T04:16:16;9.02;;;5.80;;
60494;SDS011;46342;49.046;11.920;2023-03-01T04:18:42;11.02;;;5.88;;
60494;SDS011;46342;49.046;11.920;2023-03-01T04:21:08;9.18;;;5.40;;
60494;SDS011;46342;49.046;11.920;2023-03-01T04:23:34;10.25;;;5.57;;
60494;SDS011;46342;49.046;11.920;2023-03-01T04:26:00;9.27;;;5.75;;
60494;SDS011;46342;49.046;11.920;2023-03-01T04:28:26;9.38;;;6.00;;
60494;SDS011;46342;49.046;11.920;2023-03-01T04:30:52;8.38;;;5.75;;
60494;SDS011;46342;49.046;11.920;2023-03-01T04:33:19;8.27;;;5.30;;
60494;SDS011;46342;49.046;11.920;2023-03-01T04:35:45;9.90;;;5.43;;
60494;SDS011;46342;49.046;11.920;2023-03-01T04:38:11;10.43;;;5.50;;
60494;SDS011;46342;49.046;11.920;2023-03-01T04:40:36;9.95;;;6.25;;
60494;SDS011;46342;49.046;11.920;2023-03-01T04:43:02;10.30;;;6.30;;
60494;SDS011;46342;49.046;11.920;2023-03-01T04:45:29;10.73;;;5.72;;
60494;SDS011;46342;49.046;11.920;2023-03-01T04:47:56;10.20;;;6.25;;
60494;SDS011;46342;49.046;11.920;2023-03-01T04:50:23;8.82;;;5.43;;
60494;SDS011;46342;49.046;11.920;2023-03-01T04:52:50;9.00;;;6.00;;
60494;SDS011;46342;49.046;11.920;2023-03-01T04:55:16;13.57;;;5.97;;
60494;SDS011;46342;49.046;11.920;2023-03-01T04:57:42;9.07;;;5.88;;
60494;SDS011;46342;49.046;11.920;2023-03-01T05:00:09;11.07;;;6.03;;
60494;SDS011;46342;49.046;11.920;2023-03-01T05:02:49;11.25;;;6.18;;
60494;SDS011;46342;49.046;11.920;2023-03-01T05:05:18;10.30;;;5.75;;
60494;SDS011;46342;49.046;11.920;2023-03-01T05:07:50;9.82;;;5.93;;
60494;SDS011;46342;49.046;11.920;2023-03-01T05:10:19;11.00;;;6.18;;
60494;SDS011;46342;49.046;11.920;2023-03-01T05:12:45;8.80;;;5.70;;
60494;SDS011;46342;49.046;11.920;2023-03-01T05:15:11;8.63;;;5.68;;
60494;SDS011;46342;49.046;11.920;2023-03-01T05:17:37;7.65;;;5.65;;
60494;SDS011;46342;49.046;11.920;2023-03-01T05:20:03;8.93;;;5.53;;
60494;SDS011;46342;49.046;11.920;2023-03-01T05:22:33;9.98;;;6.00;;
60494;SDS011;46342;49.046;11.920;2023-03-01T05:24:59;11.18;;;5.47;;
60494;SDS011;46342;49.046;11.920;2023-03-01T05:27:25;9.15;;;5.28;;
60494;SDS011;46342;49.046;11.920;2023-03-01T05:29:50;7.80;;;5.22;;
60494;SDS011;46342;49.046;11.920;2023-03-01T05:32:16;11.48;;;6.55;;
60494;SDS011;46342;49.046;11.920;2023-03-01T05:34:42;10.05;;;5.97;;
60494;SDS011;46342;49.046;11.920;2023-03-01T05:37:07;12.15;;;7.05;;
60494;SDS011;46342;49.046;11.920;2023-03-01T05:39:33;9.98;;;6.35;;
60494;SDS011;46342;49.046;11.920;2023-03-01T05:41:59;10.85;;;5.32;;
60494;SDS011;46342;49.046;11.920;2023-03-01T05:44:26;8.55;;;5.15;;
60494;SDS011;46342;49.046;11.920;2023-03-01T05:46:53;8.63;;;4.97;;
60494;SDS011;46342;49.046;11.920;2023-03-01T05:49:18;9.55;;;5.05;;
60494;SDS011;46342;49.046;11.920;2023-03-01T05:51:47;9.10;;;6.25;;
60494;SDS011;46342;49.046;11.920;2023-03-01T05:54:14;10.48;;;6.30;;
60494;SDS011;46342;49.046;11.920;2023-03-01T05:56:39;9.40;;;5.72;;
60494;SDS011;46342;49.046;11.920;2023-03-01T05:59:05;11.20;;;6.00;;
60494;SDS011;46342;49.046;11.920;2023-03-01T06:01:31;9.60;;;5.57;;
60494;SDS011;46342;49.046;11.920;2023-03-01T06:03:58;10.77;;;7.78;;
60494;SDS011;46342;49.046;11.920;2023-03-01T06:06:23;10.30;;;6.32;;
60494;SDS011;46342;49.046;11.920;2023-03-01T06:08:50;9.73;;;5.88;;
60494;SDS011;46342;49.046;11.920;2023-03-01T06:11:16;8.50;;;5.20;;
60494;SDS011;46342;49.046;11.920;2023-03-01T06:13:42;8.77;;;5.55;;
60494;SDS011;46342;49.046;11.920;2023-03-01T06:16:08;9.57;;;6.13;;
60494;SDS011;46342;49.046;11.920;2023-03-01T06:18:35;9.75;;;5.90;;
60494;SDS011;46342;49.046;11.920;2023-03-01T06:21:00;11.18;;;6.47;;
60494;SDS011;46342;49.046;11.920;2023-03-01T06:23:26;10.05;;;5.93;;
60494;SDS011;46342;49.046;11.920;2023-03-01T06:25:52;9.20;;;5.63;;
60494;SDS011;46342;49.046;11.920;2023-03-01T06:28:18;9.10;;;6.00;;
60494;SDS011;46342;49.046;11.920;2023-03-01T06:30:43;9.10;;;5.53;;
60494;SDS011;46342;49.046;11.920;2023-03-01T06:33:09;11.27;;;6.38;;
60494;SDS011;46342;49.046;11.920;2023-03-01T06:35:35;9.25;;;5.18;;
60494;SDS011;46342;49.046;11.920;2023-03-01T06:38:01;7.45;;;5.53;;
60494;SDS011;46342;49.046;11.920;2023-03-01T06:40:28;12.43;;;5.45;;
60494;SDS011;46342;49.046;11.920;2023-03-01T06:42:54;12.35;;;6.35;;
60494;SDS011;46342;49.046;11.920;2023-03-01T06:45:20;9.38;;;5.18;;
60494;SDS011;46342;49.046;11.920;2023-03-01T06:47:46;12.73;;;6.32;;
60494;SDS011;46342;49.046;11.920;2023-03-01T06:50:12;11.43;;;7.00;;
60494;SDS011;46342;49.046;11.920;2023-03-01T06:52:38;13.80;;;6.75;;
60494;SDS011;46342;49.046;11.920;2023-03-01T06:55:04;10.48;;;6.13;;
60494;SDS011;46342;49.046;11.920;2023-03-01T06:57:30;9.32;;;5.72;;
60494;SDS011;46342;49.046;11.920;2023-03-01T06:59:55;11.18;;;6.68;;
60494;SDS011;46342;49.046;11.920;2023-03-01T07:02:21;11.75;;;6.38;;
60494;SDS011;46342;49.046;11.920;2023-03-01T07:04:48;11.23;;;6.25;;
60494;SDS011;46342;49.046;11.920;2023-03-01T07:07:15;10.68;;;5.90;;
60494;SDS011;46342;49.046;11.920;2023-03-01T07:09:40;9.18;;;5.13;;
60494;SDS011;46342;49.046;11.920;2023-03-01T07:12:06;9.27;;;5.72;;
60494;SDS011;46342;49.046;11.920;2023-03-01T07:14:33;11.93;;;6.03;;
60494;SDS011;46342;49.046;11.920;2023-03-01T07:16:58;11.93;;;7.15;;
60494;SDS011;46342;49.046;11.920;2023-03-01T07:19:24;11.02;;;6.57;;
60494;SDS011;46342;49.046;11.920;2023-03-01T07:21:49;8.60;;;6.05;;
60494;SDS011;46342;49.046;11.920;2023-03-01T07:24:15;10.27;;;6.18;;
60494;SDS011;46342;49.046;11.920;2023-03-01T07:26:40;12.85;;;6.55;;
60494;SDS011;46342;49.046;11.920;2023-03-01T07:29:06;10.57;;;6.18;;
60494;SDS011;46342;49.046;11.920;2023-03-01T07:31:34;10.40;;;5.90;;
60494;SDS011;46342;49.046;11.920;2023-03-01T07:33:59;10.95;;;6.75;;
60494;SDS011;46342;49.046;11.920;2023-03-01T07:36:25;12.02;;;6.70;;
60494;SDS011;46342;49.046;11.920;2023-03-01T07:38:51;13.88;;;7.30;;
60494;SDS011;46342;49.046;11.920;2023-03-01T07:41:16;11.40;;;6.97;;
60494;SDS011;46342;49.046;11.920;2023-03-01T07:43:42;13.20;;;7.60;;
60494;SDS011;46342;49.046;11.920;2023-03-01T07:46:08;10.13;;;6.88;;
60494;SDS011;46342;49.046;11.920;2023-03-01T07:48:33;11.55;;;7.15;;
60494;SDS011;46342;49.046;11.920;2023-03-01T07:51:00;10.90;;;6.82;;
60494;SDS011;46342;49.046;11.920;2023-03-01T07:53:26;13.65;;;8.10;;
60494;SDS011;46342;49.046;11.920;2023-03-01T07:56:05;12.70;;;8.07;;
60494;SDS011;46342;49.046;11.920;2023-03-01T07:58:36;11.80;;;6.80;;
60494;SDS011;46342;49.046;11.920;2023-03-01T08:01:03;14.00;;;8.17;;
60494;SDS011;46342;49.046;11.920;2023-03-01T08:03:33;10.75;;;7.05;;
60494;SDS011;46342;49.046;11.920;2023-03-01T08:06:00;19.77;;;9.85;;
60494;SDS011;46342;49.046;11.920;2023-03-01T08:08:27;15.85;;;8.18;;
60494;SDS011;46342;49.046;11.920;2023-03-01T08:10:55;12.00;;;7.15;;
60494;SDS011;46342;49.046;11.920;2023-03-01T08:13:21;16.55;;;8.55;;
60494;SDS011;46342;49.046;11.920;2023-03-01T08:15:48;13.07;;;7.95;;
60494;SDS011;46342;49.046;11.920;2023-03-01T08:18:14;15.98;;;8.38;;
60494;SDS011;46342;49.046;11.920;2023-03-01T08:20:40;12.30;;;7.32;;
60494;SDS011;46342;49.046;11.920;2023-03-01T08:23:06;12.07;;;6.63;;
60494;SDS011;46342;49.046;11.920;2023-03-01T08:25:31;12.88;;;7.88;;
60494;SDS011;46342;49.046;11.920;2023-03-01T08:27:57;13.85;;;7.40;;
60494;SDS011;46342;49.046;11.920;2023-03-01T08:30:22;12.20;;;7.97;;
60494;SDS011;46342;49.046;11.920;2023-03-01T08:32:49;17.20;;;9.15;;
60494;SDS011;46342;49.046;11.920;2023-03-01T08:35:15;15.35;;;8.32;;
60494;SDS011;46342;49.046;11.920;2023-03-01T08:37:41;11.90;;;7.00;;
60494;SDS011;46342;49.046;11.920;2023-03-01T08:40:07;13.73;;;8.65;;
60494;SDS011;46342;49.046;11.920;2023-03-01T08:42:35;13.20;;;7.78;;
60494;SDS011;46342;49.046;11.920;2023-03-01T08:45:01;13.25;;;7.43;;
60494;SDS011;46342;49.046;11.920;2023-03-01T08:47:27;11.55;;;7.78;;
60494;SDS011;46342;49.046;11.920;2023-03-01T08:49:53;12.45;;;7.45;;
60494;SDS011;46342;49.046;11.920;2023-03-01T08:52:19;14.75;;;8.32;;
60494;SDS011;46342;49.046;11.920;2023-03-01T08:54:46;13.68;;;7.22;;
60494;SDS011;46342;49.046;11.920;2023-03-01T08:57:13;11.57;;;7.68;;
60494;SDS011;46342;49.046;11.920;2023-03-01T08:59:38;12.82;;;7.75;;
60494;SDS011;46342;49.046;11.920;2023-03-01T09:02:05;11.80;;;7.38;;
60494;SDS011;46342;49.046;11.920;2023-03-01T09:04:35;14.13;;;7.75;;
60494;SDS011;46342;49.046;11.920;2023-03-01T09:07:01;11.30;;;7.53;;
60494;SDS011;46342;49.046;11.920;2023-03-01T09:09:26;14.07;;;8.13;;
60494;SDS011;46342;49.046;11.920;2023-03-01T09:11:52;14.30;;;7.13;;
60494;SDS011;46342;49.046;11.920;2023-03-01T09:14:17;12.60;;;7.38;;
60494;SDS011;46342;49.046;11.920;2023-03-01T09:16:43;13.73;;;7.35;;
60494;SDS011;46342;49.046;11.920;2023-03-01T09:19:08;13.25;;;7.15;;
60494;SDS011;46342;49.046;11.920;2023-03-01T09:21:34;12.32;;;7.57;;
60494;SDS011;46342;49.046;11.920;2023-03-01T09:24:00;12.25;;;7.45;;
60494;SDS011;46342;49.046;11.920;2023-03-01T09:26:25;12.85;;;6.68;;
60494;SDS011;46342;49.046;11.920;2023-03-01T09:28:53;10.18;;;6.63;;
60494;SDS011;46342;49.046;11.920;2023-03-01T09:31:20;9.90;;;6.38;;
60494;SDS011;46342;49.046;11.920;2023-03-01T09:33:47;9.35;;;6.90;;
60494;SDS011;46342;49.046;11.920;2023-03-01T09:36:15;16.65;;;6.95;;
60494;SDS011;46342;49.046;11.920;2023-03-01T09:38:43;11.88;;;7.45;;
60494;SDS011;46342;49.046;11.920;2023-03-01T09:41:31;13.45;;;7.43;;
60494;SDS011;46342;49.046;11.920;2023-03-01T09:44:16;12.55;;;7.10;;
60494;SDS011;46342;49.046;11.920;2023-03-01T09:46:48;14.30;;;7.85;;
60494;SDS011;46342;49.046;11.920;2023-03-01T09:49:17;13.07;;;8.02;;
60494;SDS011;46342;49.046;11.920;2023-03-01T09:52:11;11.20;;;7.50;;
60494;SDS011;46342;49.046;11.920;2023-03-01T09:54:46;12.30;;;6.75;;
60494;SDS011;46342;49.046;11.920;2023-03-01T10:02:39;12.25;;;7.38;;
60494;SDS011;46342;49.046;11.920;2023-03-01T10:05:43;16.90;;;7.63;;
60494;SDS011;46342;49.046;11.920;2023-03-01T10:11:04;11.52;;;6.50;;
60494;SDS011;46342;49.046;11.920;2023-03-01T10:16:51;13.85;;;7.13;;
60494;SDS011;46342;49.046;11.920;2023-03-01T10:19:24;11.68;;;6.95;;
60494;SDS011;46342;49.046;11.920;2023-03-01T10:22:11;13.30;;;7.30;;
60494;SDS011;46342;49.046;11.920;2023-03-01T10:24:41;11.60;;;7.47;;
60494;SDS011;46342;49.046;11.920;2023-03-01T10:27:09;12.73;;;6.57;;
60494;SDS011;46342;49.046;11.920;2023-03-01T10:29:49;14.68;;;6.97;;
60494;SDS011;46342;49.046;11.920;2023-03-01T10:32:18;11.57;;;6.43;;
60494;SDS011;46342;49.046;11.920;2023-03-01T10:37:19;11.52;;;6.18;;
60494;SDS011;46342;49.046;11.920;2023-03-01T10:40:09;11.80;;;6.60;;
60494;SDS011;46342;49.046;11.920;2023-03-01T10:42:37;12.77;;;6.90;;
60494;SDS011;46342;49.046;11.920;2023-03-01T10:48:11;12.38;;;6.28;;
60494;SDS011;46342;49.046;11.920;2023-03-01T10:50:42;11.18;;;7.07;;
60494;SDS011;46342;49.046;11.920;2023-03-01T10:53:19;10.93;;;6.20;;
60494;SDS011;46342;49.046;11.920;2023-03-01T10:55:56;13.38;;;6.07;;
60494;SDS011;46342;49.046;11.920;2023-03-01T10:58:41;12.15;;;6.05;;
60494;SDS011;46342;49.046;11.920;2023-03-01T11:01:25;13.32;;;6.60;;
60494;SDS011;46342;49.046;11.920;2023-03-01T11:06:31;12.05;;;6.28;;
60494;SDS011;46342;49.046;11.920;2023-03-01T11:09:13;10.85;;;5.82;;
60494;SDS011;46342;49.046;11.920;2023-03-01T11:11:39;10.45;;;6.25;;
60494;SDS011;46342;49.046;11.920;2023-03-01T11:14:21;9.65;;;5.70;;
60494;SDS011;46342;49.046;11.920;2023-03-01T11:16:57;9.93;;;6.15;;
60494;SDS011;46342;49.046;11.920;2023-03-01T11:19:27;14.60;;;5.82;;
60494;SDS011;46342;49.046;11.920;2023-03-01T11:21:55;9.93;;;5.50;;
60494;SDS011;46342;49.046;11.920;2023-03-01T11:24:24;10.32;;;6.10;;
60494;SDS011;46342;49.046;11.920;2023-03-01T11:27:15;12.70;;;6.72;;
60494;SDS011;46342;49.046;11.920;2023-03-01T11:29:45;12.52;;;6.32;;
60494;SDS011;46342;49.046;11.920;2023-03-01T11:32:25;13.85;;;7.10;;
60494;SDS011;46342;49.046;11.920;2023-03-01T11:40:13;13.63;;;5.95;;
60494;SDS011;46342;49.046;11.920;2023-03-01T11:46:24;11.15;;;5.45;;
60494;SDS011;46342;49.046;11.920;2023-03-01T11:51:47;11.13;;;6.47;;
60494;SDS011;46342;49.046;11.920;2023-03-01T12:02:59;11.13;;;6.90;;
60494;SDS011;46342;49.046;11.920;2023-03-01T12:05:54;12.20;;;6.35;;
60494;SDS011;46342;49.046;11.920;2023-03-01T12:08:44;14.70;;;7.43;;
60494;SDS011;46342;49.046;11.920;2023-03-01T12:22:06;12.32;;;6.95;;
60494;SDS011;46342;49.046;11.920;2023-03-01T12:30:57;12.57;;;6.05;;
60494;SDS011;46342;49.046;11.920;2023-03-01T12:42:47;11.68;;;5.95;;
60494;SDS011;46342;49.046;11.920;2023-03-01T12:50:57;13.65;;;6.97;;
60494;SDS011;46342;49.046;11.920;2023-03-01T12:56:15;11.95;;;6.65;;
60494;SDS011;46342;49.046;11.920;2023-03-01T12:59:02;14.07;;;7.05;;
60494;SDS011;46342;49.046;11.920;2023-03-01T13:04:50;13.60;;;8.13;;
60494;SDS011;46342;49.046;11.920;2023-03-01T13:07:30;13.10;;;9.07;;
60494;SDS011;46342;49.046;11.920;2023-03-01T13:12:52;12.55;;;7.05;;
60494;SDS011;46342;49.046;11.920;2023-03-01T13:15:31;12.50;;;7.30;;
60494;SDS011;46342;49.046;11.920;2023-03-01T13:17:59;14.57;;;7.68;;
60494;SDS011;46342;49.046;11.920;2023-03-01T13:20:34;12.15;;;6.68;;
60494;SDS011;46342;49.046;11.920;2023-03-01T13:23:12;13.45;;;8.07;;
60494;SDS011;46342;49.046;11.920;2023-03-01T13:26:05;13.18;;;7.45;;
60494;SDS011;46342;49.046;11.920;2023-03-01T13:31:06;10.45;;;5.97;;
60494;SDS011;46342;49.046;11.920;2023-03-01T13:36:05;10.70;;;7.13;;
60494;SDS011;46342;49.046;11.920;2023-03-01T13:41:13;11.65;;;7.13;;
60494;SDS011;46342;49.046;11.920;2023-03-01T13:43:41;10.57;;;6.97;;
60494;SDS011;46342;49.046;11.920;2023-03-01T13:46:09;15.05;;;7.18;;
60494;SDS011;46342;49.046;11.920;2023-03-01T13:48:39;13.13;;;7.25;;
60494;SDS011;46342;49.046;11.920;2023-03-01T13:51:07;14.52;;;7.80;;
60494;SDS011;46342;49.046;11.920;2023-03-01T13:53:35;13.27;;;7.28;;
60494;SDS011;46342;49.046;11.920;2023-03-01T13:56:09;11.63;;;7.63;;
60494;SDS011;46342;49.046;11.920;2023-03-01T13:58:58;12.60;;;7.97;;
60494;SDS011;46342;49.046;11.920;2023-03-01T14:01:28;12.20;;;7.60;;
60494;SDS011;46342;49.046;11.920;2023-03-01T14:03:56;13.27;;;8.00;;
60494;SDS011;46342;49.046;11.920;2023-03-01T14:06:24;16.42;;;8.68;;
60494;SDS011;46342;49.046;11.920;2023-03-01T14:08:52;12.50;;;7.40;;
60494;SDS011;46342;49.046;11.920;2023-03-01T14:19:34;13.00;;;7.43;;
60494;SDS011;46342;49.046;11.920;2023-03-01T14:24:46;13.52;;;7.95;;
60494;SDS011;46342;49.046;11.920;2023-03-01T14:27:14;12.20;;;7.60;;
60494;SDS011;46342;49.046;11.920;2023-03-01T14:29:41;13.77;;;8.00;;
60494;SDS011;46342;49.046;11.920;2023-03-01T14:34:49;11.95;;;7.57;;
60494;SDS011;46342;49.046;11.920;2023-03-01T14:39:50;13.02;;;8.00;;
60494;SDS011;46342;49.046;11.920;2023-03-01T14:42:17;13.88;;;8.73;;
60494;SDS011;46342;49.046;11.920;2023-03-01T14:44:45;14.90;;;8.93;;
60494;SDS011;46342;49.046;11.920;2023-03-01T14:47:27;12.10;;;8.02;;
60494;SDS011;46342;49.046;11.920;2023-03-01T14:49:57;13.35;;;7.82;;
60494;SDS011;46342;49.046;11.920;2023-03-01T14:52:39;13.48;;;7.47;;
60494;SDS011;46342;49.046;11.920;2023-03-01T14:55:13;14.77;;;8.30;;
60494;SDS011;46342;49.046;11.920;2023-03-01T14:57:47;13.45;;;7.38;;
60494;SDS011;46342;49.046;11.920;2023-03-01T15:02:45;13.20;;;7.72;;
60494;SDS011;46342;49.046;11.920;2023-03-01T15:05:13;15.27;;;8.73;;
60494;SDS011;46342;49.046;11.920;2023-03-01T15:07:41;18.55;;;8.32;;
60494;SDS011;46342;49.046;11.920;2023-03-01T15:10:20;14.88;;;9.65;;
60494;SDS011;46342;49.046;11.920;2023-03-01T15:12:48;12.77;;;8.38;;
60494;SDS011;46342;49.046;11.920;2023-03-01T15:18:13;12.80;;;7.40;;
60494;SDS011;46342;49.046;11.920;2023-03-01T15:20:50;11.45;;;7.18;;
60494;SDS011;46342;49.046;11.920;2023-03-01T15:23:26;10.93;;;7.38;;
60494;SDS011;46342;49.046;11.920;2023-03-01T15:28:30;11.00;;;6.53;;
60494;SDS011;46342;49.046;11.920;2023-03-01T15:31:03;10.93;;;6.60;;
60494;SDS011;46342;49.046;11.920;2023-03-01T15:33:42;11.02;;;6.90;;
60494;SDS011;46342;49.046;11.920;2023-03-01T15:36:32;17.20;;;6.93;;
60494;SDS011;46342;49.046;11.920;2023-03-01T15:39:02;10.77;;;6.45;;
60494;SDS011;46342;49.046;11.920;2023-03-01T15:41:45;13.15;;;6.72;;
60494;SDS011;46342;49.046;11.920;2023-03-01T15:44:16;10.43;;;6.43;;
60494;SDS011;46342;49.046;11.920;2023-03-01T15:46:49;10.57;;;6.80;;
60494;SDS011;46342;49.046;11.920;2023-03-01T15:49:35;9.18;;;6.05;;
60494;SDS011;46342;49.046;11.920;2023-03-01T15:52:09;12.43;;;5.78;;
60494;SDS011;46342;49.046;11.920;2023-03-01T15:54:44;8.57;;;6.45;;
60494;SDS011;46342;49.046;11.920;2023-03-01T15:57:13;8.05;;;5.13;;
60494;SDS011;46342;49.046;11.920;2023-03-01T15:59:39;10.95;;;7.65;;
60494;SDS011;46342;49.046;11.920;2023-03-01T16:02:10;10.27;;;6.28;;
60494;SDS011;46342;49.046;11.920;2023-03-01T16:04:37;9.88;;;6.07;;
60494;SDS011;46342;49.046;11.920;2023-03-01T16:07:03;10.80;;;7.00;;
60494;SDS011;46342;49.046;11.920;2023-03-01T16:09:30;11.82;;;6.43;;
60494;SDS011;46342;49.046;11.920;2023-03-01T16:11:55;9.65;;;6.15;;
60494;SDS011;46342;49.046;11.920;2023-03-01T16:14:21;10.50;;;6.00;;
60494;SDS011;46342;49.046;11.920;2023-03-01T16:16:47;8.52;;;5.72;;
60494;SDS011;46342;49.046;11.920;2023-03-01T16:19:13;9.70;;;6.38;;
60494;SDS011;46342;49.046;11.920;2023-03-01T16:21:39;8.77;;;5.57;;
60494;SDS011;46342;49.046;11.920;2023-03-01T16:24:07;11.77;;;6.35;;
60494;SDS011;46342;49.046;11.920;2023-03-01T16:26:33;9.75;;;6.15;;
60494;SDS011;46342;49.046;11.920;2023-03-01T16:28:58;8.73;;;5.60;;
60494;SDS011;46342;49.046;11.920;2023-03-01T16:31:24;12.07;;;6.75;;